sensor_id;sensor_type;location;lat;lon;timestamp;P1;durP1;ratioP1;P2;durP2;ratioP2
58472;SDS011;44775;51.564;5.460;2023-09-19T00:01:45;14.65;;;2.75;;
58472;SDS011;44775;51.564;5.460;2023-09-19T00:04:14;13.93;;;3.45;;
58472;SDS011;44775;51.564;5.460;2023-09-19T00:06:40;16.40;;;2.90;;
58472;SDS011;44775;51.564;5.460;2023-09-19T00:09:06;14.68;;;3.08;;
58472;SDS011;44775;51.564;5.460;2023-09-19T00:11:35;13.23;;;2.70;;
58472;SDS011;44775;51.564;5.460;2023-09-19T00:14:01;13.10;;;3.05;;
58472;SDS011;44775;51.564;5.460;2023-09-19T00:16:26;14.63;;;2.85;;
58472;SDS011;44775;51.564;5.460;2023-09-19T00:18:52;11.93;;;2.90;;
58472;SDS011;44775;51.564;5.460;2023-09-19T00:21:17;15.13;;;3.15;;
58472;SDS011;44775;51.564;5.460;2023-09-19T00:23:44;13.73;;;2.90;;
58472;SDS011;44775;51.564;5.460;2023-09-19T00:26:09;12.93;;;2.70;;
58472;SDS011;44775;51.564;5.460;2023-09-19T00:28:34;13.60;;;3.00;;
58472;SDS011;44775;51.564;5.460;2023-09-19T00:31:00;13.88;;;2.90;;
58472;SDS011;44775;51.564;5.460;2023-09-19T00:33:26;19.65;;;3.20;;
58472;SDS011;44775;51.564;5.460;2023-09-19T00:35:54;12.90;;;3.33;;
58472;SDS011;44775;51.564;5.460;2023-09-19T00:38:22;14.65;;;3.47;;
58472;SDS011;44775;51.564;5.460;2023-09-19T00:40:51;18.35;;;3.20;;
58472;SDS011;44775;51.564;5.460;2023-09-19T00:43:18;11.90;;;2.80;;
58472;SDS011;44775;51.564;5.460;2023-09-19T00:45:45;15.18;;;2.60;;
58472;SDS011;44775;51.564;5.460;2023-09-19T00:48:13;13.80;;;3.10;;
58472;SDS011;44775;51.564;5.460;2023-09-19T00:50:41;16.50;;;3.22;;
58472;SDS011;44775;51.564;5.460;2023-09-19T00:55:35;15.60;;;3.97;;
58472;SDS011;44775;51.564;5.460;2023-09-19T00:58:02;13.15;;;2.92;;
58472;SDS011;44775;51.564;5.460;2023-09-19T01:00:28;13.15;;;2.75;;
58472;SDS011;44775;51.564;5.460;2023-09-19T01:02:54;10.73;;;2.75;;
58472;SDS011;44775;51.564;5.460;2023-09-19T01:05:19;14.13;;;3.50;;
58472;SDS011;44775;51.564;5.460;2023-09-19T01:07:45;11.57;;;2.90;;
58472;SDS011;44775;51.564;5.460;2023-09-19T01:10:13;15.50;;;3.20;;
58472;SDS011;44775;51.564;5.460;2023-09-19T01:15:22;12.27;;;2.97;;
58472;SDS011;44775;51.564;5.460;2023-09-19T01:17:55;14.52;;;3.92;;
58472;SDS011;44775;51.564;5.460;2023-09-19T01:20:33;9.93;;;2.78;;
58472;SDS011;44775;51.564;5.460;2023-09-19T01:23:13;16.60;;;3.10;;
58472;SDS011;44775;51.564;5.460;2023-09-19T01:25:50;14.73;;;2.92;;
58472;SDS011;44775;51.564;5.460;2023-09-19T01:28:31;14.27;;;2.90;;
58472;SDS011;44775;51.564;5.460;2023-09-19T01:31:03;15.20;;;2.97;;
58472;SDS011;44775;51.564;5.460;2023-09-19T01:36:24;14.10;;;3.33;;
58472;SDS011;44775;51.564;5.460;2023-09-19T01:38:50;17.08;;;3.10;;
58472;SDS011;44775;51.564;5.460;2023-09-19T01:41:17;10.85;;;2.83;;
58472;SDS011;44775;51.564;5.460;2023-09-19T01:43:51;14.05;;;3.05;;
58472;SDS011;44775;51.564;5.460;2023-09-19T01:46:28;17.35;;;2.88;;
58472;SDS011;44775;51.564;5.460;2023-09-19T01:51:32;17.55;;;3.33;;
58472;SDS011;44775;51.564;5.460;2023-09-19T01:54:03;15.75;;;2.70;;
58472;SDS011;44775;51.564;5.460;2023-09-19T01:56:37;9.32;;;2.83;;
58472;SDS011;44775;51.564;5.460;2023-09-19T01:59:12;13.18;;;2.97;;
58472;SDS011;44775;51.564;5.460;2023-09-19T02:01:41;8.32;;;2.60;;
58472;SDS011;44775;51.564;5.460;2023-09-19T02:04:09;9.60;;;2.80;;
58472;SDS011;44775;51.564;5.460;2023-09-19T02:06:35;12.10;;;2.75;;
58472;SDS011;44775;51.564;5.460;2023-09-19T02:09:04;16.40;;;2.80;;
58472;SDS011;44775;51.564;5.460;2023-09-19T02:11:29;16.02;;;2.80;;
58472;SDS011;44775;51.564;5.460;2023-09-19T02:13:54;12.93;;;2.40;;
58472;SDS011;44775;51.564;5.460;2023-09-19T02:16:20;11.93;;;3.00;;
58472;SDS011;44775;51.564;5.460;2023-09-19T02:18:49;9.32;;;2.58;;
58472;SDS011;44775;51.564;5.460;2023-09-19T02:21:15;11.02;;;2.78;;
58472;SDS011;44775;51.564;5.460;2023-09-19T02:23:40;8.63;;;2.30;;
58472;SDS011;44775;51.564;5.460;2023-09-19T02:26:06;12.85;;;3.25;;
58472;SDS011;44775;51.564;5.460;2023-09-19T02:28:31;13.10;;;4.13;;
58472;SDS011;44775;51.564;5.460;2023-09-19T02:30:57;10.95;;;2.60;;
58472;SDS011;44775;51.564;5.460;2023-09-19T02:33:22;14.70;;;2.88;;
58472;SDS011;44775;51.564;5.460;2023-09-19T02:35:48;12.32;;;2.75;;
58472;SDS011;44775;51.564;5.460;2023-09-19T02:38:13;7.68;;;2.22;;
58472;SDS011;44775;51.564;5.460;2023-09-19T02:40:43;15.35;;;2.95;;
58472;SDS011;44775;51.564;5.460;2023-09-19T02:43:08;14.07;;;2.63;;
58472;SDS011;44775;51.564;5.460;2023-09-19T02:45:34;15.02;;;2.55;;
58472;SDS011;44775;51.564;5.460;2023-09-19T02:47:59;8.85;;;2.58;;
58472;SDS011;44775;51.564;5.460;2023-09-19T02:50:25;14.38;;;3.22;;
58472;SDS011;44775;51.564;5.460;2023-09-19T02:52:50;12.13;;;2.90;;
58472;SDS011;44775;51.564;5.460;2023-09-19T02:55:16;11.82;;;2.80;;
58472;SDS011;44775;51.564;5.460;2023-09-19T02:57:47;11.63;;;2.60;;
58472;SDS011;44775;51.564;5.460;2023-09-19T03:00:13;10.77;;;2.40;;
58472;SDS011;44775;51.564;5.460;2023-09-19T03:02:39;11.45;;;2.65;;
58472;SDS011;44775;51.564;5.460;2023-09-19T03:05:06;14.57;;;2.90;;
58472;SDS011;44775;51.564;5.460;2023-09-19T03:07:32;10.50;;;2.53;;
58472;SDS011;44775;51.564;5.460;2023-09-19T03:09:57;12.02;;;2.80;;
58472;SDS011;44775;51.564;5.460;2023-09-19T03:12:23;12.45;;;3.47;;
58472;SDS011;44775;51.564;5.460;2023-09-19T03:14:48;7.40;;;2.50;;
58472;SDS011;44775;51.564;5.460;2023-09-19T03:17:15;10.98;;;3.10;;
58472;SDS011;44775;51.564;5.460;2023-09-19T03:19:40;10.85;;;2.80;;
58472;SDS011;44775;51.564;5.460;2023-09-19T03:22:06;9.07;;;2.35;;
58472;SDS011;44775;51.564;5.460;2023-09-19T03:24:32;10.57;;;2.70;;
58472;SDS011;44775;51.564;5.460;2023-09-19T03:27:00;12.65;;;2.70;;
58472;SDS011;44775;51.564;5.460;2023-09-19T03:29:25;12.48;;;2.60;;
58472;SDS011;44775;51.564;5.460;2023-09-19T03:31:51;14.05;;;2.95;;
58472;SDS011;44775;51.564;5.460;2023-09-19T03:34:17;14.15;;;2.60;;
58472;SDS011;44775;51.564;5.460;2023-09-19T03:36:42;12.95;;;2.72;;
58472;SDS011;44775;51.564;5.460;2023-09-19T03:39:07;11.95;;;2.78;;
58472;SDS011;44775;51.564;5.460;2023-09-19T03:41:33;13.00;;;2.90;;
58472;SDS011;44775;51.564;5.460;2023-09-19T03:44:01;9.90;;;2.40;;
58472;SDS011;44775;51.564;5.460;2023-09-19T03:46:27;9.73;;;2.40;;
58472;SDS011;44775;51.564;5.460;2023-09-19T03:48:52;14.63;;;2.42;;
58472;SDS011;44775;51.564;5.460;2023-09-19T03:51:19;11.65;;;2.60;;
58472;SDS011;44775;51.564;5.460;2023-09-19T03:53:44;9.45;;;2.10;;
58472;SDS011;44775;51.564;5.460;2023-09-19T03:56:10;12.80;;;2.55;;
58472;SDS011;44775;51.564;5.460;2023-09-19T03:58:35;11.48;;;2.85;;
58472;SDS011;44775;51.564;5.460;2023-09-19T04:01:04;11.85;;;2.85;;
58472;SDS011;44775;51.564;5.460;2023-09-19T04:03:30;11.70;;;2.53;;
58472;SDS011;44775;51.564;5.460;2023-09-19T04:06:00;10.25;;;2.38;;
58472;SDS011;44775;51.564;5.460;2023-09-19T04:08:26;11.25;;;2.47;;
58472;SDS011;44775;51.564;5.460;2023-09-19T04:10:52;15.73;;;3.15;;
58472;SDS011;44775;51.564;5.460;2023-09-19T04:13:18;15.00;;;3.05;;
58472;SDS011;44775;51.564;5.460;2023-09-19T04:15:43;13.23;;;2.80;;
58472;SDS011;44775;51.564;5.460;2023-09-19T04:18:11;14.57;;;2.70;;
58472;SDS011;44775;51.564;5.460;2023-09-19T04:20:36;11.73;;;2.80;;
58472;SDS011;44775;51.564;5.460;2023-09-19T04:23:02;10.57;;;2.75;;
58472;SDS011;44775;51.564;5.460;2023-09-19T04:25:27;12.27;;;3.03;;
58472;SDS011;44775;51.564;5.460;2023-09-19T04:27:52;10.02;;;2.78;;
58472;SDS011;44775;51.564;5.460;2023-09-19T04:30:18;12.75;;;3.15;;
58472;SDS011;44775;51.564;5.460;2023-09-19T04:32:44;13.45;;;2.70;;
58472;SDS011;44775;51.564;5.460;2023-09-19T04:35:10;11.00;;;2.88;;
58472;SDS011;44775;51.564;5.460;2023-09-19T04:37:39;15.05;;;3.30;;
58472;SDS011;44775;51.564;5.460;2023-09-19T04:40:08;11.45;;;2.38;;
58472;SDS011;44775;51.564;5.460;2023-09-19T04:42:38;10.10;;;2.47;;
58472;SDS011;44775;51.564;5.460;2023-09-19T04:45:04;11.18;;;2.70;;
58472;SDS011;44775;51.564;5.460;2023-09-19T04:47:30;15.30;;;2.90;;
58472;SDS011;44775;51.564;5.460;2023-09-19T04:49:55;12.15;;;2.58;;
58472;SDS011;44775;51.564;5.460;2023-09-19T04:52:21;13.50;;;3.05;;
58472;SDS011;44775;51.564;5.460;2023-09-19T04:54:47;13.13;;;2.80;;
58472;SDS011;44775;51.564;5.460;2023-09-19T04:57:13;11.05;;;2.40;;
58472;SDS011;44775;51.564;5.460;2023-09-19T04:59:38;11.00;;;2.80;;
58472;SDS011;44775;51.564;5.460;2023-09-19T05:02:06;13.07;;;2.63;;
58472;SDS011;44775;51.564;5.460;2023-09-19T05:04:33;13.18;;;2.83;;
58472;SDS011;44775;51.564;5.460;2023-09-19T05:06:58;14.50;;;2.60;;
58472;SDS011;44775;51.564;5.460;2023-09-19T05:09:23;14.38;;;2.95;;
58472;SDS011;44775;51.564;5.460;2023-09-19T05:11:49;6.65;;;1.75;;
58472;SDS011;44775;51.564;5.460;2023-09-19T05:14:16;12.25;;;2.45;;
58472;SDS011;44775;51.564;5.460;2023-09-19T05:16:41;16.40;;;2.90;;
58472;SDS011;44775;51.564;5.460;2023-09-19T05:19:07;12.18;;;2.65;;
58472;SDS011;44775;51.564;5.460;2023-09-19T05:21:36;8.55;;;3.00;;
58472;SDS011;44775;51.564;5.460;2023-09-19T05:24:03;11.38;;;2.30;;
58472;SDS011;44775;51.564;5.460;2023-09-19T05:26:32;13.15;;;2.47;;
58472;SDS011;44775;51.564;5.460;2023-09-19T05:28:57;10.80;;;2.25;;
58472;SDS011;44775;51.564;5.460;2023-09-19T05:31:23;13.20;;;2.78;;
58472;SDS011;44775;51.564;5.460;2023-09-19T05:33:50;10.80;;;2.28;;
58472;SDS011;44775;51.564;5.460;2023-09-19T05:36:16;10.13;;;2.08;;
58472;SDS011;44775;51.564;5.460;2023-09-19T05:38:41;11.48;;;2.63;;
58472;SDS011;44775;51.564;5.460;2023-09-19T05:41:07;11.15;;;2.83;;
58472;SDS011;44775;51.564;5.460;2023-09-19T05:43:34;7.75;;;2.83;;
58472;SDS011;44775;51.564;5.460;2023-09-19T05:46:02;15.85;;;2.95;;
58472;SDS011;44775;51.564;5.460;2023-09-19T05:48:28;14.13;;;2.47;;
58472;SDS011;44775;51.564;5.460;2023-09-19T05:50:53;12.23;;;2.90;;
58472;SDS011;44775;51.564;5.460;2023-09-19T05:53:18;10.75;;;2.60;;
58472;SDS011;44775;51.564;5.460;2023-09-19T05:55:44;9.50;;;2.60;;
58472;SDS011;44775;51.564;5.460;2023-09-19T05:58:10;13.48;;;3.05;;
58472;SDS011;44775;51.564;5.460;2023-09-19T06:00:38;7.30;;;2.20;;
58472;SDS011;44775;51.564;5.460;2023-09-19T06:03:06;9.65;;;2.30;;
58472;SDS011;44775;51.564;5.460;2023-09-19T06:05:33;11.15;;;2.42;;
58472;SDS011;44775;51.564;5.460;2023-09-19T06:07:58;16.63;;;3.00;;
58472;SDS011;44775;51.564;5.460;2023-09-19T06:10:32;11.45;;;2.50;;
58472;SDS011;44775;51.564;5.460;2023-09-19T06:12:59;13.13;;;2.90;;
58472;SDS011;44775;51.564;5.460;2023-09-19T06:15:25;17.27;;;3.05;;
58472;SDS011;44775;51.564;5.460;2023-09-19T06:17:51;12.18;;;2.67;;
58472;SDS011;44775;51.564;5.460;2023-09-19T06:20:20;12.98;;;2.70;;
58472;SDS011;44775;51.564;5.460;2023-09-19T06:22:45;13.20;;;2.70;;
58472;SDS011;44775;51.564;5.460;2023-09-19T06:25:11;13.07;;;2.78;;
58472;SDS011;44775;51.564;5.460;2023-09-19T06:27:38;10.65;;;2.72;;
58472;SDS011;44775;51.564;5.460;2023-09-19T06:30:08;14.35;;;3.13;;
58472;SDS011;44775;51.564;5.460;2023-09-19T06:32:34;10.88;;;2.45;;
58472;SDS011;44775;51.564;5.460;2023-09-19T06:35:00;10.32;;;2.88;;
58472;SDS011;44775;51.564;5.460;2023-09-19T06:37:28;12.75;;;2.60;;
58472;SDS011;44775;51.564;5.460;2023-09-19T06:39:54;16.13;;;2.70;;
58472;SDS011;44775;51.564;5.460;2023-09-19T06:42:20;16.30;;;2.80;;
58472;SDS011;44775;51.564;5.460;2023-09-19T06:44:47;15.87;;;3.27;;
58472;SDS011;44775;51.564;5.460;2023-09-19T06:47:13;11.30;;;2.50;;
58472;SDS011;44775;51.564;5.460;2023-09-19T06:49:39;13.80;;;3.15;;
58472;SDS011;44775;51.564;5.460;2023-09-19T06:52:04;8.60;;;2.47;;
58472;SDS011;44775;51.564;5.460;2023-09-19T06:54:30;10.77;;;2.53;;
58472;SDS011;44775;51.564;5.460;2023-09-19T06:56:56;11.43;;;2.75;;
58472;SDS011;44775;51.564;5.460;2023-09-19T06:59:23;11.20;;;2.50;;
58472;SDS011;44775;51.564;5.460;2023-09-19T07:01:49;13.77;;;2.80;;
58472;SDS011;44775;51.564;5.460;2023-09-19T07:04:15;11.27;;;2.67;;
58472;SDS011;44775;51.564;5.460;2023-09-19T07:06:41;16.52;;;3.00;;
58472;SDS011;44775;51.564;5.460;2023-09-19T07:09:07;15.55;;;2.95;;
58472;SDS011;44775;51.564;5.460;2023-09-19T07:11:33;15.68;;;3.08;;
58472;SDS011;44775;51.564;5.460;2023-09-19T07:13:59;15.23;;;3.20;;
58472;SDS011;44775;51.564;5.460;2023-09-19T07:16:24;11.63;;;2.35;;
58472;SDS011;44775;51.564;5.460;2023-09-19T07:18:54;17.92;;;2.92;;
58472;SDS011;44775;51.564;5.460;2023-09-19T07:21:21;15.48;;;3.10;;
58472;SDS011;44775;51.564;5.460;2023-09-19T07:23:47;15.68;;;2.97;;
58472;SDS011;44775;51.564;5.460;2023-09-19T07:26:13;15.38;;;3.20;;
58472;SDS011;44775;51.564;5.460;2023-09-19T07:28:38;13.68;;;2.78;;
58472;SDS011;44775;51.564;5.460;2023-09-19T07:31:03;13.38;;;2.78;;
58472;SDS011;44775;51.564;5.460;2023-09-19T07:33:30;14.57;;;2.85;;
58472;SDS011;44775;51.564;5.460;2023-09-19T07:35:55;14.98;;;2.90;;
58472;SDS011;44775;51.564;5.460;2023-09-19T07:38:20;11.52;;;2.65;;
58472;SDS011;44775;51.564;5.460;2023-09-19T07:40:46;13.63;;;2.63;;
58472;SDS011;44775;51.564;5.460;2023-09-19T07:43:11;12.50;;;2.65;;
58472;SDS011;44775;51.564;5.460;2023-09-19T07:45:37;10.13;;;2.90;;
58472;SDS011;44775;51.564;5.460;2023-09-19T07:48:02;13.40;;;3.28;;
58472;SDS011;44775;51.564;5.460;2023-09-19T07:50:29;9.35;;;2.50;;
58472;SDS011;44775;51.564;5.460;2023-09-19T07:52:55;12.27;;;2.80;;
58472;SDS011;44775;51.564;5.460;2023-09-19T07:55:21;13.52;;;2.15;;
58472;SDS011;44775;51.564;5.460;2023-09-19T07:57:50;14.63;;;2.58;;
58472;SDS011;44775;51.564;5.460;2023-09-19T08:00:15;14.52;;;3.35;;
58472;SDS011;44775;51.564;5.460;2023-09-19T08:02:41;14.43;;;2.55;;
58472;SDS011;44775;51.564;5.460;2023-09-19T08:05:08;9.88;;;2.53;;
58472;SDS011;44775;51.564;5.460;2023-09-19T08:07:41;9.18;;;2.22;;
58472;SDS011;44775;51.564;5.460;2023-09-19T08:10:07;13.10;;;2.65;;
58472;SDS011;44775;51.564;5.460;2023-09-19T08:12:33;14.20;;;2.47;;
58472;SDS011;44775;51.564;5.460;2023-09-19T08:15:01;10.38;;;2.25;;
58472;SDS011;44775;51.564;5.460;2023-09-19T08:17:27;17.42;;;3.30;;
58472;SDS011;44775;51.564;5.460;2023-09-19T08:19:53;14.70;;;2.90;;
58472;SDS011;44775;51.564;5.460;2023-09-19T08:22:21;16.40;;;3.75;;
58472;SDS011;44775;51.564;5.460;2023-09-19T08:27:13;16.98;;;3.45;;
58472;SDS011;44775;51.564;5.460;2023-09-19T08:29:38;12.93;;;2.80;;
58472;SDS011;44775;51.564;5.460;2023-09-19T08:32:03;13.02;;;2.88;;
58472;SDS011;44775;51.564;5.460;2023-09-19T08:34:29;12.32;;;2.53;;
58472;SDS011;44775;51.564;5.460;2023-09-19T08:36:56;10.73;;;2.42;;
58472;SDS011;44775;51.564;5.460;2023-09-19T08:39:24;11.68;;;2.80;;
58472;SDS011;44775;51.564;5.460;2023-09-19T08:41:57;7.80;;;1.95;;
58472;SDS011;44775;51.564;5.460;2023-09-19T08:44:24;16.95;;;3.40;;
58472;SDS011;44775;51.564;5.460;2023-09-19T08:46:49;17.02;;;3.00;;
58472;SDS011;44775;51.564;5.460;2023-09-19T08:49:32;11.27;;;2.40;;
58472;SDS011;44775;51.564;5.460;2023-09-19T08:52:16;13.60;;;2.58;;
58472;SDS011;44775;51.564;5.460;2023-09-19T08:54:51;10.75;;;2.58;;
58472;SDS011;44775;51.564;5.460;2023-09-19T08:57:20;15.10;;;2.65;;
58472;SDS011;44775;51.564;5.460;2023-09-19T08:59:47;14.25;;;2.50;;
58472;SDS011;44775;51.564;5.460;2023-09-19T09:02:15;11.43;;;2.60;;
58472;SDS011;44775;51.564;5.460;2023-09-19T09:04:41;13.43;;;2.58;;
58472;SDS011;44775;51.564;5.460;2023-09-19T09:07:13;12.75;;;2.60;;
58472;SDS011;44775;51.564;5.460;2023-09-19T09:09:39;12.00;;;2.63;;
58472;SDS011;44775;51.564;5.460;2023-09-19T09:12:12;9.77;;;2.20;;
58472;SDS011;44775;51.564;5.460;2023-09-19T09:14:39;13.10;;;2.67;;
58472;SDS011;44775;51.564;5.460;2023-09-19T09:17:06;11.40;;;2.30;;
58472;SDS011;44775;51.564;5.460;2023-09-19T09:19:32;12.02;;;2.70;;
58472;SDS011;44775;51.564;5.460;2023-09-19T09:22:07;15.85;;;3.08;;
58472;SDS011;44775;51.564;5.460;2023-09-19T09:24:33;13.18;;;3.08;;
58472;SDS011;44775;51.564;5.460;2023-09-19T09:27:02;13.35;;;2.88;;
58472;SDS011;44775;51.564;5.460;2023-09-19T09:29:40;18.50;;;3.00;;
58472;SDS011;44775;51.564;5.460;2023-09-19T09:32:25;12.30;;;2.70;;
58472;SDS011;44775;51.564;5.460;2023-09-19T09:34:54;12.75;;;2.65;;
58472;SDS011;44775;51.564;5.460;2023-09-19T09:37:21;10.10;;;2.65;;
58472;SDS011;44775;51.564;5.460;2023-09-19T09:39:53;14.65;;;2.90;;
58472;SDS011;44775;51.564;5.460;2023-09-19T09:42:33;9.43;;;2.55;;
58472;SDS011;44775;51.564;5.460;2023-09-19T09:45:14;11.95;;;2.75;;
58472;SDS011;44775;51.564;5.460;2023-09-19T09:47:45;12.57;;;2.83;;
58472;SDS011;44775;51.564;5.460;2023-09-19T09:50:24;14.52;;;3.00;;
58472;SDS011;44775;51.564;5.460;2023-09-19T09:52:54;13.35;;;2.42;;
58472;SDS011;44775;51.564;5.460;2023-09-19T09:55:28;11.50;;;2.50;;
58472;SDS011;44775;51.564;5.460;2023-09-19T09:58:15;8.70;;;2.17;;
58472;SDS011;44775;51.564;5.460;2023-09-19T10:01:03;10.65;;;2.42;;
58472;SDS011;44775;51.564;5.460;2023-09-19T10:03:36;9.48;;;2.80;;
58472;SDS011;44775;51.564;5.460;2023-09-19T10:06:12;11.57;;;2.13;;
58472;SDS011;44775;51.564;5.460;2023-09-19T10:09:01;10.48;;;2.45;;
58472;SDS011;44775;51.564;5.460;2023-09-19T10:13:56;11.55;;;2.33;;
58472;SDS011;44775;51.564;5.460;2023-09-19T10:16:26;11.98;;;2.53;;
58472;SDS011;44775;51.564;5.460;2023-09-19T10:18:57;11.82;;;2.28;;
58472;SDS011;44775;51.564;5.460;2023-09-19T10:21:27;9.93;;;2.17;;
58472;SDS011;44775;51.564;5.460;2023-09-19T10:23:55;11.43;;;2.50;;
58472;SDS011;44775;51.564;5.460;2023-09-19T10:26:24;6.25;;;1.90;;
58472;SDS011;44775;51.564;5.460;2023-09-19T10:28:55;11.73;;;2.80;;
58472;SDS011;44775;51.564;5.460;2023-09-19T10:31:25;11.57;;;2.67;;
58472;SDS011;44775;51.564;5.460;2023-09-19T10:33:52;11.98;;;2.30;;
58472;SDS011;44775;51.564;5.460;2023-09-19T10:36:20;9.38;;;2.47;;
58472;SDS011;44775;51.564;5.460;2023-09-19T10:38:54;15.05;;;3.75;;
58472;SDS011;44775;51.564;5.460;2023-09-19T10:41:21;8.70;;;2.22;;
58472;SDS011;44775;51.564;5.460;2023-09-19T10:43:48;11.55;;;2.45;;
58472;SDS011;44775;51.564;5.460;2023-09-19T10:46:13;11.13;;;2.10;;
58472;SDS011;44775;51.564;5.460;2023-09-19T10:48:40;13.63;;;2.17;;
58472;SDS011;44775;51.564;5.460;2023-09-19T10:51:15;12.30;;;2.33;;
58472;SDS011;44775;51.564;5.460;2023-09-19T10:53:49;12.02;;;2.45;;
58472;SDS011;44775;51.564;5.460;2023-09-19T10:56:17;8.60;;;1.98;;
58472;SDS011;44775;51.564;5.460;2023-09-19T10:58:46;11.55;;;2.33;;
58472;SDS011;44775;51.564;5.460;2023-09-19T11:01:13;9.82;;;2.53;;
58472;SDS011;44775;51.564;5.460;2023-09-19T11:03:39;8.82;;;2.33;;
58472;SDS011;44775;51.564;5.460;2023-09-19T11:06:12;11.20;;;1.92;;
58472;SDS011;44775;51.564;5.460;2023-09-19T11:11:39;8.95;;;2.20;;
58472;SDS011;44775;51.564;5.460;2023-09-19T11:15:05;9.48;;;1.88;;
58472;SDS011;44775;51.564;5.460;2023-09-19T11:30:36;7.25;;;1.92;;
58472;SDS011;44775;51.564;5.460;2023-09-19T11:33:21;4.95;;;1.63;;
58472;SDS011;44775;51.564;5.460;2023-09-19T11:41:36;6.50;;;1.70;;
58472;SDS011;44775;51.564;5.460;2023-09-19T11:46:34;12.77;;;2.05;;
58472;SDS011;44775;51.564;5.460;2023-09-19T11:49:13;7.78;;;1.75;;
58472;SDS011;44775;51.564;5.460;2023-09-19T11:51:40;6.30;;;1.52;;
58472;SDS011;44775;51.564;5.460;2023-09-19T11:54:10;5.07;;;1.30;;
58472;SDS011;44775;51.564;5.460;2023-09-19T11:56:56;5.00;;;1.08;;
58472;SDS011;44775;51.564;5.460;2023-09-19T11:59:23;5.18;;;1.10;;
58472;SDS011;44775;51.564;5.460;2023-09-19T12:01:57;3.28;;;1.17;;
58472;SDS011;44775;51.564;5.460;2023-09-19T12:04:39;4.43;;;1.20;;
58472;SDS011;44775;51.564;5.460;2023-09-19T12:07:09;4.68;;;1.30;;
58472;SDS011;44775;51.564;5.460;2023-09-19T12:09:41;5.70;;;1.40;;
58472;SDS011;44775;51.564;5.460;2023-09-19T12:12:09;3.83;;;1.35;;
58472;SDS011;44775;51.564;5.460;2023-09-19T12:14:37;4.55;;;1.13;;
58472;SDS011;44775;51.564;5.460;2023-09-19T12:17:04;5.65;;;1.42;;
58472;SDS011;44775;51.564;5.460;2023-09-19T12:19:30;7.53;;;1.20;;
58472;SDS011;44775;51.564;5.460;2023-09-19T12:22:01;8.82;;;1.20;;
58472;SDS011;44775;51.564;5.460;2023-09-19T12:24:31;7.15;;;1.52;;
58472;SDS011;44775;51.564;5.460;2023-09-19T12:27:04;4.25;;;1.10;;
58472;SDS011;44775;51.564;5.460;2023-09-19T12:29:32;6.32;;;1.27;;
58472;SDS011;44775;51.564;5.460;2023-09-19T12:32:10;4.78;;;1.10;;
58472;SDS011;44775;51.564;5.460;2023-09-19T12:34:36;4.25;;;1.08;;
58472;SDS011;44775;51.564;5.460;2023-09-19T12:37:08;6.38;;;1.45;;
58472;SDS011;44775;51.564;5.460;2023-09-19T12:39:38;7.30;;;1.42;;
58472;SDS011;44775;51.564;5.460;2023-09-19T12:42:06;4.70;;;1.20;;
58472;SDS011;44775;51.564;5.460;2023-09-19T12:44:34;2.90;;;1.05;;
58472;SDS011;44775;51.564;5.460;2023-09-19T12:47:07;3.40;;;1.20;;
58472;SDS011;44775;51.564;5.460;2023-09-19T12:49:36;4.80;;;1.30;;
58472;SDS011;44775;51.564;5.460;2023-09-19T12:52:01;4.22;;;1.15;;
58472;SDS011;44775;51.564;5.460;2023-09-19T12:54:37;6.93;;;1.20;;
58472;SDS011;44775;51.564;5.460;2023-09-19T12:57:04;4.47;;;1.75;;
58472;SDS011;44775;51.564;5.460;2023-09-19T12:59:30;4.43;;;1.10;;
58472;SDS011;44775;51.564;5.460;2023-09-19T13:02:04;4.90;;;1.15;;
58472;SDS011;44775;51.564;5.460;2023-09-19T13:04:32;4.25;;;1.05;;
58472;SDS011;44775;51.564;5.460;2023-09-19T13:06:59;3.95;;;1.08;;
58472;SDS011;44775;51.564;5.460;2023-09-19T13:09:26;4.20;;;1.10;;
58472;SDS011;44775;51.564;5.460;2023-09-19T13:12:04;3.60;;;1.10;;
58472;SDS011;44775;51.564;5.460;2023-09-19T13:17:05;3.22;;;0.88;;
58472;SDS011;44775;51.564;5.460;2023-09-19T13:19:42;3.13;;;0.93;;
58472;SDS011;44775;51.564;5.460;2023-09-19T13:25:21;4.60;;;0.80;;
58472;SDS011;44775;51.564;5.460;2023-09-19T13:27:53;3.00;;;0.70;;
58472;SDS011;44775;51.564;5.460;2023-09-19T13:30:21;3.67;;;1.10;;
58472;SDS011;44775;51.564;5.460;2023-09-19T13:32:50;4.95;;;1.25;;
58472;SDS011;44775;51.564;5.460;2023-09-19T13:35:16;7.32;;;1.20;;
58472;SDS011;44775;51.564;5.460;2023-09-19T13:37:42;6.63;;;1.20;;
58472;SDS011;44775;51.564;5.460;2023-09-19T13:42:34;7.82;;;1.15;;
58472;SDS011;44775;51.564;5.460;2023-09-19T13:45:01;4.60;;;1.17;;
58472;SDS011;44775;51.564;5.460;2023-09-19T13:47:29;6.18;;;1.15;;
58472;SDS011;44775;51.564;5.460;2023-09-19T13:49:55;5.60;;;1.17;;
58472;SDS011;44775;51.564;5.460;2023-09-19T13:52:20;5.65;;;1.08;;
58472;SDS011;44775;51.564;5.460;2023-09-19T13:54:46;10.48;;;1.17;;
58472;SDS011;44775;51.564;5.460;2023-09-19T13:57:12;5.28;;;1.13;;
58472;SDS011;44775;51.564;5.460;2023-09-19T13:59:37;5.55;;;1.30;;
58472;SDS011;44775;51.564;5.460;2023-09-19T14:02:03;5.15;;;1.20;;
58472;SDS011;44775;51.564;5.460;2023-09-19T14:04:28;5.88;;;1.10;;
58472;SDS011;44775;51.564;5.460;2023-09-19T14:06:54;4.72;;;1.27;;
58472;SDS011;44775;51.564;5.460;2023-09-19T14:09:19;6.45;;;1.23;;
58472;SDS011;44775;51.564;5.460;2023-09-19T14:11:44;4.15;;;1.08;;
58472;SDS011;44775;51.564;5.460;2023-09-19T14:14:12;3.35;;;1.10;;
58472;SDS011;44775;51.564;5.460;2023-09-19T14:16:37;3.65;;;1.23;;
58472;SDS011;44775;51.564;5.460;2023-09-19T14:19:04;4.63;;;1.10;;
58472;SDS011;44775;51.564;5.460;2023-09-19T14:21:30;4.57;;;1.10;;
58472;SDS011;44775;51.564;5.460;2023-09-19T14:23:55;4.85;;;1.17;;
58472;SDS011;44775;51.564;5.460;2023-09-19T14:26:21;8.02;;;1.20;;
58472;SDS011;44775;51.564;5.460;2023-09-19T14:28:48;2.92;;;1.00;;
58472;SDS011;44775;51.564;5.460;2023-09-19T14:31:14;4.00;;;1.10;;
58472;SDS011;44775;51.564;5.460;2023-09-19T14:33:40;6.57;;;1.20;;
58472;SDS011;44775;51.564;5.460;2023-09-19T14:36:06;3.55;;;0.95;;
58472;SDS011;44775;51.564;5.460;2023-09-19T14:38:34;7.10;;;1.50;;
58472;SDS011;44775;51.564;5.460;2023-09-19T14:41:01;7.72;;;1.10;;
58472;SDS011;44775;51.564;5.460;2023-09-19T14:43:30;6.68;;;1.20;;
58472;SDS011;44775;51.564;5.460;2023-09-19T14:46:01;6.03;;;1.25;;
58472;SDS011;44775;51.564;5.460;2023-09-19T14:48:27;5.38;;;1.35;;
58472;SDS011;44775;51.564;5.460;2023-09-19T14:50:53;5.30;;;1.10;;
58472;SDS011;44775;51.564;5.460;2023-09-19T14:53:20;6.93;;;1.50;;
58472;SDS011;44775;51.564;5.460;2023-09-19T14:55:45;3.33;;;1.05;;
58472;SDS011;44775;51.564;5.460;2023-09-19T14:58:12;5.50;;;1.40;;
58472;SDS011;44775;51.564;5.460;2023-09-19T15:00:38;4.90;;;1.42;;
58472;SDS011;44775;51.564;5.460;2023-09-19T15:03:04;5.57;;;1.65;;
58472;SDS011;44775;51.564;5.460;2023-09-19T15:05:29;4.78;;;1.38;;
58472;SDS011;44775;51.564;5.460;2023-09-19T15:07:55;7.53;;;1.48;;
58472;SDS011;44775;51.564;5.460;2023-09-19T15:10:22;3.78;;;1.20;;
58472;SDS011;44775;51.564;5.460;2023-09-19T15:12:47;4.60;;;1.15;;
58472;SDS011;44775;51.564;5.460;2023-09-19T15:15:13;5.85;;;1.30;;
58472;SDS011;44775;51.564;5.460;2023-09-19T15:17:39;3.83;;;1.10;;
58472;SDS011;44775;51.564;5.460;2023-09-19T15:20:05;3.88;;;1.10;;
58472;SDS011;44775;51.564;5.460;2023-09-19T15:22:32;6.03;;;1.48;;
58472;SDS011;44775;51.564;5.460;2023-09-19T15:25:01;7.07;;;1.40;;
58472;SDS011;44775;51.564;5.460;2023-09-19T15:27:27;5.68;;;1.20;;
58472;SDS011;44775;51.564;5.460;2023-09-19T15:29:55;6.40;;;1.27;;
58472;SDS011;44775;51.564;5.460;2023-09-19T15:32:26;3.90;;;1.33;;